Time,TemperatureF,DewpointF,PressureIn,WindDirection,WindDirectionDegrees,WindSpeedMPH,WindSpeedGustMPH,Humidity,HourlyPrecipIn,Conditions,Clouds,dailyrainin,SoftwareType,DateUTC
2013-11-27 00:00:00,40.3,30.9,30.00,NNW,334,0.0,2.0,69,0.00,CLR,,0.00,WeatherDisplay:10.37,2013-11-26 23:00:00,
2013-11-27 00:10:00,40.5,31.1,30.00,NNW,334,1.0,3.0,69,0.00,CLR,,0.00,WeatherDisplay:10.37,2013-11-26 23:10:00,
2013-11-27 00:20:00,40.5,31.1,30.00,NNW,333,1.0,3.0,69,0.00,CLR,,0.00,WeatherDisplay:10.37,2013-11-26 23:20:00,
2013-11-27 00:30:00,40.6,30.9,29.99,NNW,333,1.0,4.0,68,0.00,CLR,,0.00,WeatherDisplay:10.37,2013-11-26 23:30:00,
2013-11-27 00:40:00,40.6,30.9,29.99,NNW,333,1.0,4.0,68,0.00,CLR,,0.00,WeatherDisplay:10.37,2013-11-26 23:40:00,
2013-11-27 00:50:00,40.6,30.5,30.00,NNW,331,3.0,5.0,67,0.00,CLR,,0.00,WeatherDisplay:10.37,2013-11-26 23:50:00,
2013-11-27 01:00:00,40.6,30.5,29.99,NNW,330,1.0,4.0,67,0.00,CLR,,0.00,WeatherDisplay:10.37,2013-11-27 00:00:00,
2013-11-27 01:10:00,40.6,30.5,29.99,NNW,330,0.0,3.0,67,0.00,CLR,,0.00,WeatherDisplay:10.37,2013-11-27 00:10:00,
2013-11-27 01:20:00,40.4,30.0,29.99,NNW,332,0.0,3.0,66,0.00,CLR,,0.00,WeatherDisplay:10.37,2013-11-27 00:20:00,
2013-11-27 01:30:00,40.4,29.9,29.99,NNW,340,1.0,4.0,66,0.00,CLR,,0.00,WeatherDisplay:10.37,2013-11-27 00:30:00,
2013-11-27 01:40:00,40.2,29.7,29.99,NNW,343,1.0,5.0,66,0.00,CLR,,0.00,WeatherDisplay:10.37,2013-11-27 00:40:00,
2013-11-27 01:50:00,40.1,29.6,29.99,NNW,327,0.0,7.0,66,0.00,CLR,,0.00,WeatherDisplay:10.37,2013-11-27 00:50:00,
2013-11-27 02:00:00,39.8,29.8,29.99,North,5,1.0,10.0,67,0.00,CLR,,0.00,WeatherDisplay:10.37,2013-11-27 01:00:00,
2013-11-27 02:10:00,39.8,29.7,29.99,North,358,3.0,10.0,67,0.00,CLR,,0.00,WeatherDisplay:10.37,2013-11-27 01:10:00,
2013-11-27 02:20:00,39.7,29.7,29.99,North,7,2.0,6.0,67,0.00,CLR,,0.00,WeatherDisplay:10.37,2013-11-27 01:20:00,
2013-11-27 02:30:00,39.9,29.8,30.00,North,3,2.0,8.0,67,0.00,CLR,,0.00,WeatherDisplay:10.37,2013-11-27 01:30:00,
2013-11-27 02:40:00,39.9,29.8,30.00,NNE,23,1.0,5.0,67,0.00,CLR,,0.00,WeatherDisplay:10.37,2013-11-27 01:40:00,
2013-11-27 02:50:00,40.0,29.6,30.00,North,2,2.0,5.0,66,0.00,CLR,,0.00,WeatherDisplay:10.37,2013-11-27 01:50:00,
2013-11-27 03:00:00,40.3,29.8,30.00,NNW,334,0.0,4.0,66,0.00,CLR,,0.00,WeatherDisplay:10.37,2013-11-27 02:00:00,
2013-11-27 03:20:00,40.6,29.0,30.00,NNE,24,0.0,5.0,63,0.00,CLR,,0.00,WeatherDisplay:10.37,2013-11-27 02:20:00,
2013-11-27 03:30:00,40.5,29.3,29.99,NNW,331,1.0,4.0,64,0.00,CLR,,0.00,WeatherDisplay:10.37,2013-11-27 02:30:00,
2013-11-27 03:40:00,40.6,29.0,29.98,NNW,327,3.0,8.0,63,0.00,CLR,,0.00,WeatherDisplay:10.37,2013-11-27 02:40:00,
2013-11-27 03:50:00,40.6,29.0,29.99,NNW,346,2.0,6.0,63,0.00,CLR,,0.00,WeatherDisplay:10.37,2013-11-27 02:50:00,
2013-11-27 04:00:00,40.4,29.2,30.00,NNE,13,0.0,4.0,64,0.00,CLR,,0.00,WeatherDisplay:10.37,2013-11-27 03:00:00,
2013-11-27 04:10:00,40.5,29.3,30.00,NNW,334,0.0,3.0,64,0.00,CLR,,0.00,WeatherDisplay:10.37,2013-11-27 03:10:00,
2013-11-27 04:20:00,40.7,28.7,30.00,NE,48,1.0,3.0,62,0.00,CLR,,0.00,WeatherDisplay:10.37,2013-11-27 03:20:00,
2013-11-27 04:30:00,40.7,28.7,30.00,NNW,329,3.0,6.0,62,0.00,CLR,,0.00,WeatherDisplay:10.37,2013-11-27 03:30:00,
2013-11-27 04:40:00,40.2,29.0,30.01,NNW,330,3.0,8.0,64,0.00,CLR,,0.00,WeatherDisplay:10.37,2013-11-27 03:40:00,
2013-11-27 04:50:00,40.0,28.8,30.01,NW,318,2.0,9.0,64,0.00,CLR,,0.00,WeatherDisplay:10.37,2013-11-27 03:50:00,
2013-11-27 05:00:00,40.0,29.2,30.01,NNE,26,1.0,5.0,65,0.00,CLR,,0.00,WeatherDisplay:10.37,2013-11-27 04:00:00,
2013-11-27 05:10:00,40.1,28.9,30.01,NNW,328,3.0,9.0,64,0.00,CLR,,0.00,WeatherDisplay:10.37,2013-11-27 04:10:00,
2013-11-27 05:20:00,40.2,29.0,30.01,NNW,339,1.0,13.0,64,0.00,CLR,,0.00,WeatherDisplay:10.37,2013-11-27 04:20:00,
2013-11-27 05:30:00,40.4,29.2,30.01,NW,308,0.0,5.0,64,0.00,CLR,,0.00,WeatherDisplay:10.37,2013-11-27 04:30:00,
2013-11-27 05:40:00,40.2,29.0,30.02,North,8,1.0,4.0,64,0.00,CLR,,0.00,WeatherDisplay:10.37,2013-11-27 04:40:00,
2013-11-27 05:50:00,40.1,29.3,30.02,North,356,1.0,5.0,65,0.00,CLR,,0.00,WeatherDisplay:10.37,2013-11-27 04:50:00,
2013-11-27 06:00:00,40.0,29.6,30.02,NW,324,1.0,4.0,66,0.00,CLR,,0.00,WeatherDisplay:10.37,2013-11-27 05:00:00,
2013-11-27 06:10:00,40.1,28.9,30.03,NNW,347,0.0,2.0,64,0.00,CLR,,0.00,WeatherDisplay:10.37,2013-11-27 05:10:00,
2013-11-27 06:20:00,40.3,28.3,30.03,North,5,0.0,4.0,62,0.00,CLR,,0.00,WeatherDisplay:10.37,2013-11-27 05:20:00,
2013-11-27 06:30:00,40.4,28.8,30.04,North,7,0.0,4.0,63,0.00,CLR,,0.00,WeatherDisplay:10.37,2013-11-27 05:30:00,
2013-11-27 06:40:00,40.4,28.8,30.04,NNE,33,0.0,4.0,63,0.00,CLR,,0.00,WeatherDisplay:10.37,2013-11-27 05:40:00,
2013-11-27 06:50:00,40.5,28.9,30.04,NNE,15,0.0,3.0,63,0.00,CLR,,0.00,WeatherDisplay:10.37,2013-11-27 05:50:00,
2013-11-27 07:00:00,40.7,28.7,30.04,NNE,17,1.0,5.0,62,0.00,CLR,,0.00,WeatherDisplay:10.37,2013-11-27 06:00:00,
2013-11-27 07:10:00,40.8,28.8,30.05,NNE,18,1.0,4.0,62,0.00,CLR,,0.00,WeatherDisplay:10.37,2013-11-27 06:10:00,
2013-11-27 07:20:00,40.8,28.8,30.05,North,10,1.0,4.0,62,0.00,CLR,,0.00,WeatherDisplay:10.37,2013-11-27 06:20:00,
2013-11-27 07:30:00,40.9,28.9,30.06,NW,317,1.0,8.0,62,0.00,CLR,,0.00,WeatherDisplay:10.37,2013-11-27 06:30:00,
2013-11-27 07:40:00,40.9,28.5,30.06,NNW,346,1.0,5.0,61,0.00,CLR,,0.00,WeatherDisplay:10.37,2013-11-27 06:40:00,
2013-11-27 07:50:00,41.0,29.0,30.07,NNE,18,3.0,6.0,62,0.00,CLR,,0.00,WeatherDisplay:10.37,2013-11-27 06:50:00,
2013-11-27 08:00:00,41.0,29.4,30.07,NNE,28,1.0,5.0,63,0.00,CLR,,0.00,WeatherDisplay:10.37,2013-11-27 07:00:00,
2013-11-27 08:10:00,41.4,29.3,30.08,North,5,2.0,8.0,62,0.00,CLR,,0.00,WeatherDisplay:10.37,2013-11-27 07:10:00,
2013-11-27 08:20:00,41.8,29.7,30.08,North,6,1.0,5.0,62,0.00,CLR,,0.00,WeatherDisplay:10.37,2013-11-27 07:20:00,
2013-11-27 08:30:00,42.2,29.7,30.08,NNE,22,1.0,5.0,61,0.00,CLR,,0.00,WeatherDisplay:10.37,2013-11-27 07:30:00,
2013-11-27 08:40:00,42.4,29.5,30.09,NNE,30,1.0,6.0,60,0.00,CLR,,0.00,WeatherDisplay:10.37,2013-11-27 07:40:00,
2013-11-27 08:50:00,42.7,29.4,30.09,North,10,2.0,7.0,59,0.00,CLR,,0.00,WeatherDisplay:10.37,2013-11-27 07:50:00,
2013-11-27 09:00:00,42.9,29.5,30.10,NNW,345,1.0,8.0,59,0.00,CLR,,0.00,WeatherDisplay:10.37,2013-11-27 08:00:00,
2013-11-27 09:10:00,43.1,29.7,30.10,NNE,26,1.0,5.0,59,0.00,CLR,,0.00,WeatherDisplay:10.37,2013-11-27 08:10:00,
2013-11-27 09:20:00,43.3,29.9,30.10,North,350,5.0,10.0,59,0.00,CLR,,0.00,WeatherDisplay:10.37,2013-11-27 08:20:00,
2013-11-27 09:30:00,43.4,30.4,30.11,NNE,18,1.0,6.0,60,0.00,CLR,,0.00,WeatherDisplay:10.37,2013-11-27 08:30:00,
2013-11-27 09:40:00,43.5,30.5,30.11,NNE,28,2.0,8.0,60,0.00,CLR,,0.00,WeatherDisplay:10.37,2013-11-27 08:40:00,
2013-11-27 09:50:00,43.5,30.5,30.11,North,4,1.0,10.0,60,0.00,CLR,,0.00,WeatherDisplay:10.37,2013-11-27 08:50:00,
2013-11-27 10:00:00,43.7,30.7,30.12,North,355,5.0,9.0,60,0.00,CLR,,0.00,WeatherDisplay:10.37,2013-11-27 09:00:00,
2013-11-27 10:10:00,44.0,31.0,30.12,North,359,3.0,8.0,60,0.00,CLR,,0.00,WeatherDisplay:10.37,2013-11-27 09:10:00,
2013-11-27 10:20:00,44.3,31.7,30.12,NNE,14,2.0,9.0,61,0.00,CLR,,0.00,WeatherDisplay:10.37,2013-11-27 09:20:00,
2013-11-27 10:30:00,44.6,31.9,30.13,NNW,344,1.0,10.0,61,0.00,CLR,,0.00,WeatherDisplay:10.37,2013-11-27 09:30:00,
2013-11-27 10:40:00,44.9,31.8,30.13,NNE,27,3.0,9.0,60,0.00,CLR,,0.00,WeatherDisplay:10.37,2013-11-27 09:40:00,
2013-11-27 10:50:00,45.0,32.3,30.13,North,357,5.0,10.0,61,0.00,CLR,,0.00,WeatherDisplay:10.37,2013-11-27 09:50:00,
2013-11-27 11:00:00,44.9,32.3,30.13,North,350,2.0,12.0,61,0.00,CLR,,0.00,WeatherDisplay:10.37,2013-11-27 10:00:00,
2013-11-27 11:10:00,45.2,32.5,30.13,NNW,344,1.0,6.0,61,0.00,CLR,,0.00,WeatherDisplay:10.37,2013-11-27 10:10:00,
2013-11-27 11:20:00,45.5,33.2,30.13,NNW,328,2.0,7.0,62,0.00,CLR,,0.00,WeatherDisplay:10.37,2013-11-27 10:20:00,
2013-11-27 11:30:00,45.8,33.1,30.13,NW,312,3.0,10.0,61,0.00,CLR,,0.00,WeatherDisplay:10.37,2013-11-27 10:30:00,
2013-11-27 11:40:00,46.1,33.0,30.12,North,350,7.0,9.0,60,0.00,CLR,,0.00,WeatherDisplay:10.37,2013-11-27 10:40:00,
2013-11-27 11:50:00,46.8,32.7,30.12,NNE,14,3.0,7.0,58,0.00,CLR,,0.00,WeatherDisplay:10.37,2013-11-27 10:50:00,
2013-11-27 12:00:00,46.3,32.7,30.13,NE,34,2.0,9.0,59,0.00,CLR,,0.00,WeatherDisplay:10.37,2013-11-27 11:00:00,
2013-11-27 12:10:00,46.3,32.7,30.13,NNE,19,3.0,8.0,59,0.00,CLR,,0.00,WeatherDisplay:10.37,2013-11-27 11:10:00,
2013-11-27 12:20:00,46.1,32.2,30.13,North,10,1.0,9.0,58,0.00,CLR,,0.00,WeatherDisplay:10.37,2013-11-27 11:20:00,
2013-11-27 12:30:00,46.4,32.4,30.13,NNE,18,3.0,10.0,58,0.00,CLR,,0.00,WeatherDisplay:10.37,2013-11-27 11:30:00,
2013-11-27 12:40:00,46.4,31.1,30.12,NNE,17,2.0,10.0,55,0.00,CLR,,0.00,WeatherDisplay:10.37,2013-11-27 11:40:00,
2013-11-27 12:50:00,46.5,31.2,30.12,North,359,5.0,10.0,55,0.00,CLR,,0.00,WeatherDisplay:10.37,2013-11-27 11:50:00,
2013-11-27 13:00:00,46.6,31.7,30.12,NNE,19,2.0,10.0,56,0.00,CLR,,0.00,WeatherDisplay:10.37,2013-11-27 12:00:00,
2013-11-27 13:10:00,46.7,32.3,30.12,NNE,30,5.0,10.0,57,0.00,CLR,,0.00,WeatherDisplay:10.37,2013-11-27 12:10:00,
2013-11-27 13:20:00,46.7,32.3,30.12,NNE,21,3.0,10.0,57,0.00,CLR,,0.00,WeatherDisplay:10.37,2013-11-27 12:20:00,
2013-11-27 13:30:00,46.7,31.8,30.12,NNE,21,3.0,12.0,56,0.00,CLR,,0.00,WeatherDisplay:10.37,2013-11-27 12:30:00,
2013-11-27 13:40:00,46.7,31.4,30.12,NNE,31,6.0,12.0,55,0.00,CLR,,0.00,WeatherDisplay:10.37,2013-11-27 12:40:00,
2013-11-27 13:50:00,46.8,31.9,30.12,NE,41,3.0,12.0,56,0.00,CLR,,0.00,WeatherDisplay:10.37,2013-11-27 12:50:00,
2013-11-27 14:00:00,46.7,31.4,30.12,North,5,3.0,10.0,55,0.00,CLR,,0.00,WeatherDisplay:10.37,2013-11-27 13:00:00,
2013-11-27 14:10:00,46.7,32.3,30.12,North,8,2.0,9.0,57,0.00,CLR,,0.00,WeatherDisplay:10.37,2013-11-27 13:10:00,
2013-11-27 14:20:00,46.7,32.3,30.13,North,8,1.0,12.0,57,0.00,CLR,,0.00,WeatherDisplay:10.37,2013-11-27 13:20:00,
2013-11-27 14:30:00,46.6,32.2,30.12,North,5,0.0,9.0,57,0.00,CLR,,0.00,WeatherDisplay:10.37,2013-11-27 13:30:00,
2013-11-27 14:40:00,46.5,32.5,30.13,North,5,0.0,10.0,58,0.00,CLR,,0.00,WeatherDisplay:10.37,2013-11-27 13:40:00,
2013-11-27 14:50:00,46.4,32.4,30.13,North,7,2.0,6.0,58,0.00,CLR,,0.00,WeatherDisplay:10.37,2013-11-27 13:50:00,
2013-11-27 15:00:00,46.3,32.3,30.13,NNE,17,2.0,9.0,58,0.00,CLR,,0.00,WeatherDisplay:10.37,2013-11-27 14:00:00,
2013-11-27 15:10:00,46.3,32.8,30.13,North,1,1.0,8.0,59,0.00,CLR,,0.00,WeatherDisplay:10.37,2013-11-27 14:10:00,
2013-11-27 15:20:00,46.3,32.7,30.14,NNW,347,3.0,12.0,59,0.00,CLR,,0.00,WeatherDisplay:10.37,2013-11-27 14:20:00,
2013-11-27 15:30:00,46.2,32.6,30.14,North,6,2.0,12.0,59,0.00,CLR,,0.00,WeatherDisplay:10.37,2013-11-27 14:30:00,
2013-11-27 15:40:00,46.1,33.4,30.14,NNE,12,2.0,7.0,61,0.00,CLR,,0.00,WeatherDisplay:10.37,2013-11-27 14:40:00,
2013-11-27 15:50:00,45.9,33.6,30.15,NNW,336,1.0,5.0,62,0.00,CLR,,0.00,WeatherDisplay:10.37,2013-11-27 14:50:00,
2013-11-27 16:00:00,45.8,33.9,30.15,NNW,332,1.0,7.0,63,0.00,CLR,,0.00,WeatherDisplay:10.37,2013-11-27 15:00:00,
2013-11-27 16:10:00,45.6,33.3,30.15,North,355,3.0,10.0,62,0.00,CLR,,0.00,WeatherDisplay:10.37,2013-11-27 15:10:00,
2013-11-27 16:20:00,45.4,32.7,30.15,NNW,333,2.0,8.0,61,0.00,CLR,,0.00,WeatherDisplay:10.37,2013-11-27 15:20:00,
2013-11-27 16:30:00,45.2,33.3,30.15,NNW,335,2.0,8.0,63,0.00,CLR,,0.00,WeatherDisplay:10.37,2013-11-27 15:30:00,
2013-11-27 16:40:00,45.0,33.2,30.15,NW,322,1.0,8.0,63,0.00,CLR,,0.00,WeatherDisplay:10.37,2013-11-27 15:40:00,
2013-11-27 16:50:00,44.9,33.1,30.15,NNW,336,2.0,9.0,63,0.00,CLR,,0.00,WeatherDisplay:10.37,2013-11-27 15:50:00,
2013-11-27 17:00:00,44.8,32.9,30.16,NNW,340,1.0,7.0,63,0.00,CLR,,0.00,WeatherDisplay:10.37,2013-11-27 16:00:00,
2013-11-27 17:10:00,44.7,32.5,30.16,North,356,2.0,6.0,62,0.00,CLR,,0.00,WeatherDisplay:10.37,2013-11-27 16:10:00,
2013-11-27 17:20:00,44.7,32.9,30.16,NW,320,0.0,5.0,63,0.00,CLR,,0.00,WeatherDisplay:10.37,2013-11-27 16:20:00,
2013-11-27 17:30:00,44.6,32.8,30.17,NNW,329,1.0,5.0,63,0.00,CLR,,0.00,WeatherDisplay:10.37,2013-11-27 16:30:00,
2013-11-27 17:40:00,44.5,32.3,30.17,NNW,336,1.0,6.0,62,0.00,CLR,,0.00,WeatherDisplay:10.37,2013-11-27 16:40:00,
2013-11-27 17:50:00,44.5,32.3,30.18,NNW,342,1.0,10.0,62,0.00,CLR,,0.00,WeatherDisplay:10.37,2013-11-27 16:50:00,
2013-11-27 18:00:00,44.5,32.3,30.19,North,349,2.0,10.0,62,0.00,CLR,,0.00,WeatherDisplay:10.37,2013-11-27 17:00:00,
2013-11-27 18:10:00,44.5,32.7,30.19,NW,308,1.0,5.0,63,0.00,CLR,,0.00,WeatherDisplay:10.37,2013-11-27 17:10:00,
2013-11-27 18:20:00,44.5,32.7,30.20,NNW,327,1.0,4.0,63,0.00,CLR,,0.00,WeatherDisplay:10.37,2013-11-27 17:20:00,
2013-11-27 18:30:00,44.5,33.1,30.20,NE,36,1.0,5.0,64,0.00,CLR,,0.00,WeatherDisplay:10.37,2013-11-27 17:30:00,
2013-11-27 18:40:00,44.3,33.3,30.21,North,0,1.0,4.0,65,0.00,CLR,,0.00,WeatherDisplay:10.37,2013-11-27 17:40:00,
2013-11-27 18:50:00,44.3,33.3,30.21,NW,323,0.0,3.0,65,0.00,CLR,,0.00,WeatherDisplay:10.37,2013-11-27 17:50:00,
2013-11-27 19:00:00,44.3,33.3,30.22,North,6,2.0,5.0,65,0.00,CLR,,0.00,WeatherDisplay:10.37,2013-11-27 18:00:00,
2013-11-27 19:10:00,44.2,33.6,30.22,North,8,0.0,4.0,66,0.00,CLR,,0.00,WeatherDisplay:10.37,2013-11-27 18:10:00,
2013-11-27 19:20:00,44.2,33.6,30.22,NE,39,0.0,4.0,66,0.00,CLR,,0.00,WeatherDisplay:10.37,2013-11-27 18:20:00,
2013-11-27 19:30:00,44.2,33.9,30.22,NE,38,0.0,4.0,67,0.00,CLR,,0.00,WeatherDisplay:10.37,2013-11-27 18:30:00,
2013-11-27 19:40:00,44.1,33.8,30.22,NE,37,1.0,5.0,67,0.00,CLR,,0.00,WeatherDisplay:10.37,2013-11-27 18:40:00,
2013-11-27 19:50:00,44.0,34.1,30.23,NE,36,1.0,4.0,68,0.00,CLR,,0.00,WeatherDisplay:10.37,2013-11-27 18:50:00,
2013-11-27 20:00:00,44.0,34.1,30.23,NNE,33,2.0,8.0,68,0.00,CLR,,0.00,WeatherDisplay:10.37,2013-11-27 19:00:00,
2013-11-27 20:10:00,44.0,33.7,30.23,NE,34,1.0,8.0,67,0.00,CLR,,0.00,WeatherDisplay:10.37,2013-11-27 19:10:00,
2013-11-27 20:20:00,43.9,33.6,30.23,NNE,22,3.0,10.0,67,0.00,CLR,,0.00,WeatherDisplay:10.37,2013-11-27 19:20:00,
2013-11-27 20:30:00,43.9,34.0,30.23,NE,36,3.0,12.0,68,0.00,CLR,,0.00,WeatherDisplay:10.37,2013-11-27 19:30:00,
2013-11-27 20:40:00,43.8,34.3,30.23,NNE,18,1.0,12.0,69,0.00,CLR,,0.00,WeatherDisplay:10.37,2013-11-27 19:40:00,
2013-11-27 20:50:00,43.5,34.7,30.24,North,360,2.0,8.0,71,0.00,CLR,,0.00,WeatherDisplay:10.37,2013-11-27 19:50:00,
2013-11-27 21:00:00,43.4,34.6,30.24,NNE,20,3.0,6.0,71,0.00,CLR,,0.00,WeatherDisplay:10.37,2013-11-27 20:00:00,
2013-11-27 21:10:00,43.2,34.8,30.24,North,5,2.0,9.0,72,0.00,CLR,,0.00,WeatherDisplay:10.37,2013-11-27 20:10:00,
2013-11-27 21:20:00,43.3,34.9,30.25,NW,318,0.0,6.0,72,0.00,CLR,,0.00,WeatherDisplay:10.37,2013-11-27 20:20:00,
2013-11-27 21:30:00,43.2,34.8,30.25,North,10,1.0,8.0,72,0.00,CLR,,0.00,WeatherDisplay:10.37,2013-11-27 20:30:00,
2013-11-27 21:40:00,43.2,35.1,30.25,NW,314,3.0,7.0,73,0.00,CLR,,0.00,WeatherDisplay:10.37,2013-11-27 20:40:00,
2013-11-27 21:50:00,43.2,35.1,30.25,NNW,327,1.0,8.0,73,0.00,CLR,,0.00,WeatherDisplay:10.37,2013-11-27 20:50:00,
2013-11-27 22:00:00,43.2,35.1,30.25,NW,323,1.0,8.0,73,0.00,CLR,,0.00,WeatherDisplay:10.37,2013-11-27 21:00:00,
2013-11-27 22:10:00,43.2,35.1,30.26,NW,318,3.0,8.0,73,0.00,CLR,,0.00,WeatherDisplay:10.37,2013-11-27 21:10:00,
2013-11-27 22:20:00,43.1,35.0,30.26,NNW,335,2.0,6.0,73,0.00,CLR,,0.00,WeatherDisplay:10.37,2013-11-27 21:20:00,
2013-11-27 22:30:00,43.1,35.0,30.26,NW,326,2.0,5.0,73,0.00,CLR,,0.00,WeatherDisplay:10.37,2013-11-27 21:30:00,
2013-11-27 22:40:00,43.3,34.9,30.26,NW,308,1.0,5.0,72,0.00,CLR,,0.00,WeatherDisplay:10.37,2013-11-27 21:40:00,
2013-11-27 22:50:00,43.4,35.0,30.26,NW,321,1.0,7.0,72,0.00,CLR,,0.00,WeatherDisplay:10.37,2013-11-27 21:50:00,
2013-11-27 23:00:00,43.2,35.1,30.26,NW,319,1.0,5.0,73,0.00,CLR,,0.00,WeatherDisplay:10.37,2013-11-27 22:00:00,
2013-11-27 23:10:00,43.0,35.3,30.26,NW,321,2.0,6.0,74,0.00,CLR,,0.00,WeatherDisplay:10.37,2013-11-27 22:10:00,
2013-11-27 23:20:00,42.9,35.5,30.27,NW,322,2.0,5.0,75,0.00,CLR,,0.00,WeatherDisplay:10.37,2013-11-27 22:20:00,
2013-11-27 23:30:00,42.8,35.8,30.27,NW,319,2.0,9.0,76,0.00,CLR,,0.00,WeatherDisplay:10.37,2013-11-27 22:30:00,
2013-11-27 23:40:00,42.6,35.9,30.27,NNW,334,2.0,9.0,77,0.00,CLR,,0.00,WeatherDisplay:10.37,2013-11-27 22:40:00,
2013-11-27 23:50:00,42.3,35.9,30.27,NNW,331,2.0,8.0,78,0.00,CLR,,0.00,WeatherDisplay:10.37,2013-11-27 22:50:00,